Time;durP1;ratioP1;P1;durP2;ratioP2;P2;SDS_P1;SDS_P2;PMS_P1;PMS_P2;Temp;Humidity;BMP_temperature;BMP_pressure;BME280_temperature;BME280_humidity;BME280_pressure;Samples;Min_cycle;Max_cycle;Signal;HPM_P1;HPM_P2
2023/03/04 00:00:45;;;;;;;25.58;15.23;;;15.70;42.30;;;;;;4940464;29;20206;-83
2023/03/04 00:03:14;;;;;;;26.58;16.05;;;15.70;42.40;;;;;;4940483;29;20253;-82
2023/03/04 00:05:41;;;;;;;23.13;15.35;;;15.70;42.40;;;;;;4941187;29;20202;-83
2023/03/04 00:08:08;;;;;;;24.58;15.57;;;15.60;42.40;;;;;;4941086;29;20229;-83
2023/03/04 00:10:35;;;;;;;22.90;15.68;;;15.60;42.50;;;;;;4924850;29;20205;-83
2023/03/04 00:13:02;;;;;;;24.52;15.77;;;15.60;42.40;;;;;;4940674;29;20201;-83
2023/03/04 00:15:29;;;;;;;23.65;14.95;;;15.60;42.40;;;;;;4924748;29;20309;-83
2023/03/04 00:17:58;;;;;;;23.60;14.95;;;15.60;42.50;;;;;;4940527;29;20322;-83
2023/03/04 00:20:25;;;;;;;22.73;14.98;;;15.50;42.40;;;;;;4941098;29;20555;-83
2023/03/04 00:22:52;;;;;;;21.80;14.43;;;15.50;42.30;;;;;;4940386;29;20203;-83
2023/03/04 00:25:20;;;;;;;22.30;14.40;;;15.50;42.40;;;;;;4909682;29;20195;-83
2023/03/04 00:27:47;;;;;;;23.05;15.10;;;15.50;42.50;;;;;;4940179;29;20225;-83
2023/03/04 00:30:15;;;;;;;22.65;14.68;;;15.50;42.60;;;;;;4940292;29;20562;-82
2023/03/04 00:32:42;;;;;;;22.17;15.23;;;15.40;42.50;;;;;;4924473;29;20202;-82
2023/03/04 00:35:11;;;;;;;20.73;14.00;;;15.40;42.50;;;;;;4940613;29;20258;-82
2023/03/04 00:37:39;;;;;;;24.92;14.43;;;15.40;42.40;;;;;;4940955;29;20329;-82
2023/03/04 00:40:07;;;;;;;20.63;14.00;;;15.40;42.50;;;;;;4924988;29;20203;-82
2023/03/04 00:42:34;;;;;;;21.80;14.43;;;15.30;42.40;;;;;;4940400;29;20226;-83
2023/03/04 00:45:01;;;;;;;20.90;14.23;;;15.30;42.50;;;;;;4959309;23;20225;-81
2023/03/04 00:47:28;;;;;;;22.67;15.07;;;15.30;42.50;;;;;;4959527;28;20289;-81
2023/03/04 00:49:56;;;;;;;21.10;13.65;;;15.30;42.50;;;;;;4959749;28;20261;-81
2023/03/04 00:52:25;;;;;;;20.67;13.75;;;15.30;42.50;;;;;;4959442;28;20210;-81
2023/03/04 00:54:52;;;;;;;20.25;14.05;;;15.30;42.50;;;;;;4959481;28;20564;-81
2023/03/04 00:57:19;;;;;;;22.00;14.65;;;15.30;42.50;;;;;;4960752;28;20261;-81
2023/03/04 00:59:47;;;;;;;19.95;14.23;;;15.30;42.50;;;;;;4961440;28;20593;-81
2023/03/04 01:02:15;;;;;;;22.65;14.50;;;15.20;42.50;;;;;;4960825;28;20198;-81
2023/03/04 01:04:42;;;;;;;19.38;13.90;;;15.20;42.70;;;;;;4960340;28;20198;-80
2023/03/04 01:07:09;;;;;;;19.75;13.85;;;15.20;42.60;;;;;;4960511;28;20708;-80
2023/03/04 01:09:37;;;;;;;20.55;13.90;;;15.20;42.60;;;;;;4944587;28;20596;-80
2023/03/04 01:12:05;;;;;;;21.33;13.68;;;15.20;42.60;;;;;;4960307;28;20592;-80
2023/03/04 01:14:32;;;;;;;20.77;13.52;;;15.20;42.60;;;;;;4945229;28;20198;-80
2023/03/04 01:16:59;;;;;;;20.13;13.85;;;15.10;42.60;;;;;;4944409;28;20226;-80
2023/03/04 01:19:26;;;;;;;19.05;13.48;;;15.20;42.70;;;;;;4944068;28;20673;-80
2023/03/04 01:21:54;;;;;;;19.70;13.88;;;15.10;42.60;;;;;;4961990;28;20281;-80
2023/03/04 01:24:22;;;;;;;20.33;14.02;;;15.10;42.50;;;;;;5052626;23;20227;-79
2023/03/04 01:26:50;;;;;;;20.38;13.45;;;15.10;42.60;;;;;;4941447;29;20285;-80
2023/03/04 01:29:17;;;;;;;20.35;12.98;;;15.10;42.60;;;;;;4942638;29;20207;-80
2023/03/04 01:31:44;;;;;;;17.85;12.68;;;15.10;43.20;;;;;;4947834;29;20206;-81
2023/03/04 01:34:12;;;;;;;20.33;13.45;;;15.10;42.60;;;;;;4947218;29;20199;-81
2023/03/04 01:36:40;;;;;;;21.45;13.50;;;15.00;42.60;;;;;;4930124;29;20258;-81
2023/03/04 01:39:07;;;;;;;18.35;13.27;;;15.00;42.60;;;;;;4945640;29;20270;-81
2023/03/04 01:41:34;;;;;;;20.35;14.00;;;15.00;42.70;;;;;;4944923;29;20551;-81
2023/03/04 01:44:03;;;;;;;18.58;13.02;;;15.00;42.60;;;;;;4944099;29;20205;-81
2023/03/04 01:46:31;;;;;;;18.08;12.85;;;15.00;42.70;;;;;;4943282;29;20223;-81
2023/03/04 01:48:58;;;;;;;17.33;11.88;;;15.00;42.70;;;;;;4944514;29;20206;-81
2023/03/04 01:51:25;;;;;;;18.42;13.10;;;15.00;42.70;;;;;;4943832;29;20198;-81
2023/03/04 01:53:53;;;;;;;19.42;12.32;;;14.90;42.70;;;;;;4947061;29;20199;-80
2023/03/04 01:56:23;;;;;;;18.30;12.63;;;14.90;42.70;;;;;;4947029;29;20672;-81
2023/03/04 01:59:11;;;;;;;19.90;13.40;;;14.90;42.70;;;;;;4947720;29;20317;-80
2023/03/04 02:01:38;;;;;;;17.23;12.40;;;14.90;42.70;;;;;;4948636;29;20289;-80
2023/03/04 02:04:06;;;;;;;19.83;13.27;;;14.90;42.80;;;;;;4948673;29;20195;-81
2023/03/04 02:06:34;;;;;;;18.10;12.55;;;14.80;42.70;;;;;;4942544;29;20218;-81
2023/03/04 02:09:01;;;;;;;17.88;12.63;;;14.90;42.70;;;;;;4942700;29;20202;-81
2023/03/04 02:11:28;;;;;;;20.33;13.25;;;14.80;42.70;;;;;;4948591;29;20289;-81
2023/03/04 02:13:56;;;;;;;18.13;12.48;;;14.80;42.60;;;;;;4948380;29;20210;-81
2023/03/04 02:16:24;;;;;;;19.33;12.70;;;14.80;42.70;;;;;;4948518;29;20226;-81
2023/03/04 02:18:51;;;;;;;17.13;12.90;;;14.80;42.70;;;;;;4948250;29;20243;-81
2023/03/04 02:21:21;;;;;;;17.48;12.60;;;14.80;42.70;;;;;;4948179;29;20289;-81
2023/03/04 02:23:51;;;;;;;17.65;11.98;;;14.80;42.70;;;;;;4947653;29;20673;-81
2023/03/04 02:26:21;;;;;;;19.17;12.45;;;14.70;42.60;;;;;;4948152;29;20234;-81
2023/03/04 02:28:53;;;;;;;19.27;13.02;;;14.70;42.50;;;;;;4946589;29;20733;-81
2023/03/04 02:31:25;;;;;;;16.40;11.90;;;14.70;42.60;;;;;;4946389;29;20665;-81
2023/03/04 02:33:53;;;;;;;18.30;12.43;;;14.70;42.70;;;;;;4947479;29;20217;-81
2023/03/04 02:36:20;;;;;;;15.98;11.75;;;14.70;42.70;;;;;;4947204;29;20230;-81
2023/03/04 02:38:49;;;;;;;16.58;12.00;;;14.70;42.70;;;;;;4945899;29;20195;-81
2023/03/04 02:41:17;;;;;;;17.30;12.68;;;14.70;42.70;;;;;;4946056;29;20547;-81
2023/03/04 02:43:46;;;;;;;16.30;12.35;;;14.60;42.60;;;;;;4946905;29;20203;-81
2023/03/04 02:46:13;;;;;;;16.48;12.38;;;14.60;42.60;;;;;;4945987;29;20312;-81
2023/03/04 02:48:41;;;;;;;15.48;12.45;;;14.60;42.60;;;;;;4945453;29;20194;-81
2023/03/04 02:51:09;;;;;;;16.40;12.65;;;14.70;42.70;;;;;;4945861;29;20210;-81
2023/03/04 02:53:35;;;;;;;16.55;11.65;;;14.60;42.60;;;;;;4946127;29;20198;-81
2023/03/04 02:56:02;;;;;;;16.08;11.95;;;14.60;42.60;;;;;;4945207;28;20622;-81
2023/03/04 02:58:33;;;;;;;15.20;11.70;;;14.60;42.60;;;;;;4945463;29;20586;-82
2023/03/04 03:01:02;;;;;;;15.75;11.85;;;14.60;42.70;;;;;;4942202;29;20199;-81
2023/03/04 03:03:29;;;;;;;15.38;11.63;;;14.60;42.70;;;;;;4941555;29;20195;-81
2023/03/04 03:05:57;;;;;;;13.82;11.00;;;14.50;42.50;;;;;;4943013;28;20202;-81
2023/03/04 03:08:26;;;;;;;16.65;12.45;;;14.50;42.70;;;;;;4945334;29;20569;-82
2023/03/04 03:10:54;;;;;;;14.73;11.48;;;14.50;42.70;;;;;;4946018;29;20234;-81
2023/03/04 03:13:23;;;;;;;16.08;11.65;;;14.50;42.70;;;;;;4943676;29;20197;-81
2023/03/04 03:15:51;;;;;;;15.32;11.43;;;14.50;42.70;;;;;;4926722;28;20250;-81
2023/03/04 03:18:19;;;;;;;16.30;12.18;;;14.50;42.80;;;;;;4941518;29;20222;-81
2023/03/04 03:20:47;;;;;;;15.20;11.60;;;14.50;42.70;;;;;;4941352;29;20206;-81
2023/03/04 03:23:16;;;;;;;14.57;11.32;;;14.40;42.50;;;;;;4941334;29;20207;-81
2023/03/04 03:25:43;;;;;;;15.38;11.60;;;14.40;42.60;;;;;;4941250;29;20215;-81
2023/03/04 03:28:10;;;;;;;16.17;11.73;;;14.40;42.70;;;;;;4941389;29;20302;-80
2023/03/04 03:30:39;;;;;;;15.25;11.52;;;14.40;42.60;;;;;;4940729;29;20206;-81
2023/03/04 03:33:06;;;;;;;13.88;11.25;;;14.40;42.70;;;;;;4941355;29;20198;-81
2023/03/04 03:35:35;;;;;;;14.23;10.88;;;14.40;42.70;;;;;;4941734;29;20195;-81
2023/03/04 03:38:02;;;;;;;15.93;12.02;;;14.40;42.70;;;;;;4945673;29;20309;-80
2023/03/04 03:40:29;;;;;;;13.52;10.45;;;14.30;42.70;;;;;;4944778;29;20222;-81
2023/03/04 03:42:56;;;;;;;14.65;11.05;;;14.30;42.60;;;;;;4943976;29;20210;-81
2023/03/04 03:45:24;;;;;;;15.43;11.20;;;14.30;42.60;;;;;;4944489;29;20203;-81
2023/03/04 03:47:50;;;;;;;16.05;11.40;;;14.30;42.60;;;;;;4944337;29;20258;-81
2023/03/04 03:50:18;;;;;;;12.60;11.00;;;14.20;42.50;;;;;;4941970;29;20198;-80
2023/03/04 03:52:47;;;;;;;15.43;11.63;;;14.30;42.70;;;;;;4940692;29;20203;-81
2023/03/04 03:55:14;;;;;;;13.75;11.05;;;14.30;42.60;;;;;;4940791;29;20673;-81
2023/03/04 03:57:41;;;;;;;15.15;11.25;;;14.30;42.60;;;;;;4940530;29;20333;-80
2023/03/04 04:00:09;;;;;;;14.43;11.45;;;14.30;42.70;;;;;;4940588;29;20195;-80
2023/03/04 04:02:40;;;;;;;14.95;10.98;;;14.20;42.70;;;;;;4941671;29;20282;-80
2023/03/04 04:05:08;;;;;;;14.60;11.35;;;14.30;42.60;;;;;;4941968;29;20209;-81
2023/03/04 04:07:35;;;;;;;14.00;11.35;;;14.20;42.70;;;;;;4928735;29;20243;-81
2023/03/04 04:10:04;;;;;;;14.23;10.90;;;14.20;42.70;;;;;;4944922;29;20207;-81
2023/03/04 04:12:32;;;;;;;14.55;11.05;;;14.20;42.80;;;;;;4945246;29;20202;-81
2023/03/04 04:14:59;;;;;;;13.90;11.13;;;14.20;43.10;;;;;;4944669;29;20685;-81
2023/03/04 04:17:27;;;;;;;15.25;11.48;;;14.20;43.10;;;;;;4945384;29;20233;-81
2023/03/04 04:19:54;;;;;;;14.38;11.20;;;14.20;43.30;;;;;;4945925;29;20222;-81
2023/03/04 04:22:28;;;;;;;17.38;11.93;;;14.20;43.30;;;;;;4928726;29;20697;-81
2023/03/04 04:24:55;;;;;;;15.45;11.52;;;14.20;43.30;;;;;;4943078;29;20270;-81
2023/03/04 04:27:24;;;;;;;13.63;10.73;;;14.10;43.10;;;;;;4941460;29;20233;-81
2023/03/04 04:29:51;;;;;;;14.65;11.55;;;14.10;43.10;;;;;;4943428;29;20215;-81
2023/03/04 04:32:19;;;;;;;13.45;11.38;;;14.10;43.10;;;;;;4944019;29;20210;-81
2023/03/04 04:34:46;;;;;;;13.82;11.40;;;14.10;43.00;;;;;;4944030;29;20318;-81
2023/03/04 04:37:13;;;;;;;13.45;11.23;;;14.10;43.00;;;;;;4944803;29;20234;-80
2023/03/04 04:39:40;;;;;;;14.30;11.57;;;14.10;42.80;;;;;;4945282;29;20218;-80
2023/03/04 04:42:08;;;;;;;13.40;11.07;;;14.10;42.80;;;;;;4943873;29;20202;-80
2023/03/04 04:44:37;;;;;;;14.07;11.52;;;14.20;43.00;;;;;;4943394;29;20290;-80
2023/03/04 04:47:05;;;;;;;14.38;11.23;;;14.20;42.80;;;;;;4942868;29;20281;-81
2023/03/04 04:49:32;;;;;;;14.05;11.30;;;14.20;42.80;;;;;;4942301;29;20210;-81
2023/03/04 04:51:59;;;;;;;13.68;10.65;;;14.20;42.70;;;;;;4926518;29;20265;-81
2023/03/04 04:54:26;;;;;;;12.88;10.98;;;14.20;42.80;;;;;;4942559;29;20199;-81
2023/03/04 04:56:53;;;;;;;13.00;10.80;;;14.30;42.90;;;;;;4941612;29;20234;-81
2023/03/04 04:59:20;;;;;;;12.38;11.07;;;14.20;42.80;;;;;;4927291;29;20290;-81
2023/03/04 05:01:49;;;;;;;11.45;9.88;;;14.20;42.80;;;;;;4942887;29;20260;-81
2023/03/04 05:04:16;;;;;;;12.93;10.10;;;14.30;43.00;;;;;;4926592;29;20214;-81
2023/03/04 05:06:43;;;;;;;14.43;11.30;;;14.30;42.70;;;;;;4942127;29;20227;-81
2023/03/04 05:09:10;;;;;;;13.85;10.90;;;14.30;42.70;;;;;;4942047;29;20191;-81
2023/03/04 05:11:37;;;;;;;11.60;9.45;;;14.30;42.90;;;;;;4941341;29;20213;-81
2023/03/04 05:14:04;;;;;;;11.45;9.88;;;14.30;43.00;;;;;;4909161;29;20238;-81
2023/03/04 05:16:32;;;;;;;13.68;10.20;;;14.30;42.60;;;;;;4956751;28;20352;-82
2023/03/04 05:19:00;;;;;;;11.85;10.02;;;14.30;42.50;;;;;;4939424;29;20199;-81
2023/03/04 05:21:27;;;;;;;12.10;9.13;;;14.30;42.50;;;;;;4939370;29;20206;-80
2023/03/04 05:23:54;;;;;;;11.68;9.85;;;14.30;42.60;;;;;;4940438;29;20218;-80
2023/03/04 05:26:22;;;;;;;12.80;10.13;;;14.30;42.60;;;;;;4940487;29;20234;-81
2023/03/04 05:28:49;;;;;;;10.85;9.50;;;14.30;42.50;;;;;;4943243;29;20202;-81
2023/03/04 05:31:16;;;;;;;13.10;10.02;;;14.30;42.30;;;;;;4943279;29;20549;-81
2023/03/04 05:33:43;;;;;;;12.48;9.63;;;14.40;42.40;;;;;;4944478;29;20253;-81
2023/03/04 05:36:12;;;;;;;11.10;9.40;;;14.40;42.30;;;;;;4943562;29;20273;-82
2023/03/04 05:38:39;;;;;;;12.15;10.02;;;14.40;42.20;;;;;;4942937;29;20682;-80
2023/03/04 05:41:07;;;;;;;13.32;10.50;;;14.40;42.40;;;;;;4944751;29;20202;-81
2023/03/04 05:43:35;;;;;;;11.73;10.15;;;14.40;41.60;;;;;;4944701;29;20688;-80
2023/03/04 05:46:02;;;;;;;10.75;8.73;;;14.50;42.10;;;;;;4945181;28;20202;-80
2023/03/04 05:48:29;;;;;;;12.25;10.32;;;14.50;42.40;;;;;;4944956;29;20199;-82
2023/03/04 05:50:59;;;;;;;12.52;10.88;;;14.50;42.10;;;;;;4927790;29;20218;-81
2023/03/04 05:53:28;;;;;;;13.55;11.10;;;14.50;42.20;;;;;;4943456;29;20198;-81
2023/03/04 05:55:58;;;;;;;11.50;8.88;;;14.50;41.80;;;;;;4943353;28;20653;-81
2023/03/04 05:58:25;;;;;;;12.55;9.68;;;14.50;41.90;;;;;;4927940;29;20685;-82
2023/03/04 06:00:52;;;;;;;10.70;8.93;;;14.50;42.00;;;;;;4943004;29;20195;-81
2023/03/04 06:03:20;;;;;;;12.10;9.60;;;14.50;42.00;;;;;;4942867;29;20254;-81
2023/03/04 06:05:47;;;;;;;10.85;9.00;;;14.50;42.20;;;;;;4943202;28;20202;-81
2023/03/04 06:08:14;;;;;;;10.40;8.88;;;14.50;42.00;;;;;;4943160;29;20191;-81
2023/03/04 06:10:43;;;;;;;11.88;9.43;;;14.50;42.40;;;;;;4942719;29;20207;-80
2023/03/04 06:13:10;;;;;;;11.93;9.95;;;14.60;42.20;;;;;;4943396;29;20199;-80
2023/03/04 06:15:37;;;;;;;11.48;9.48;;;14.60;42.00;;;;;;4945595;29;20594;-80
2023/03/04 06:18:05;;;;;;;12.27;9.95;;;14.60;41.80;;;;;;4946061;29;20234;-80
2023/03/04 06:20:32;;;;;;;11.60;10.27;;;14.60;42.10;;;;;;4928012;29;20199;-79
2023/03/04 06:22:59;;;;;;;13.65;10.25;;;14.70;42.20;;;;;;4943349;29;20195;-80
2023/03/04 06:25:26;;;;;;;11.00;9.10;;;14.60;42.10;;;;;;4943772;29;20214;-80
2023/03/04 06:27:54;;;;;;;12.05;10.32;;;14.60;42.00;;;;;;4928019;29;20242;-80
2023/03/04 06:30:21;;;;;;;11.65;10.02;;;14.60;41.70;;;;;;4943860;29;20206;-80
2023/03/04 06:32:48;;;;;;;10.95;8.93;;;14.60;41.80;;;;;;4943738;29;20198;-80
2023/03/04 06:35:16;;;;;;;12.10;9.40;;;14.70;42.00;;;;;;4943011;29;20745;-80
2023/03/04 06:37:43;;;;;;;11.35;9.13;;;14.70;42.10;;;;;;4942803;29;20226;-80
2023/03/04 06:40:11;;;;;;;13.30;9.70;;;14.70;41.90;;;;;;4947236;29;20217;-80
2023/03/04 06:42:38;;;;;;;11.57;9.63;;;14.80;41.70;;;;;;4947739;29;20226;-80
2023/03/04 06:45:08;;;;;;;11.10;9.75;;;14.80;41.80;;;;;;4946842;29;20270;-81
2023/03/04 06:47:35;;;;;;;12.73;9.70;;;14.80;41.60;;;;;;4946872;29;20227;-82
2023/03/04 06:50:03;;;;;;;11.43;9.77;;;14.80;41.60;;;;;;4946600;29;20206;-82
2023/03/04 06:52:30;;;;;;;11.95;9.65;;;14.80;41.40;;;;;;4946761;29;20607;-82
2023/03/04 06:54:57;;;;;;;11.30;10.00;;;14.80;41.30;;;;;;4946772;29;20654;-82
2023/03/04 06:57:24;;;;;;;11.57;9.30;;;14.80;41.20;;;;;;4944996;29;20231;-82
2023/03/04 06:59:51;;;;;;;10.65;8.98;;;14.80;41.40;;;;;;4944166;29;20305;-82
2023/03/04 07:02:19;;;;;;;11.75;9.63;;;14.90;41.60;;;;;;4964737;29;20195;-82
2023/03/04 07:04:47;;;;;;;12.45;9.60;;;14.90;41.30;;;;;;4947892;29;20577;-82
2023/03/04 07:07:13;;;;;;;9.95;8.70;;;14.90;41.20;;;;;;4947987;29;20219;-82
2023/03/04 07:09:41;;;;;;;12.70;9.48;;;14.90;41.10;;;;;;4947706;29;20273;-82
2023/03/04 07:12:08;;;;;;;11.57;9.85;;;15.00;41.10;;;;;;4957783;29;20239;-82
2023/03/04 07:14:35;;;;;;;10.90;9.05;;;15.10;41.20;;;;;;4958708;29;20195;-82
2023/03/04 07:17:02;;;;;;;11.70;9.32;;;15.10;41.10;;;;;;4959215;29;20219;-81
2023/03/04 07:19:31;;;;;;;10.63;9.50;;;15.10;41.20;;;;;;4942797;29;20260;-82
2023/03/04 07:21:58;;;;;;;11.25;9.85;;;15.10;40.90;;;;;;4958969;29;20203;-82
2023/03/04 07:24:32;;;;;;;11.05;9.65;;;15.10;40.80;;;;;;4959370;28;20241;-82
2023/03/04 07:26:59;;;;;;;11.15;9.55;;;15.20;40.90;;;;;;4958864;29;20261;-82
2023/03/04 07:29:26;;;;;;;11.13;9.52;;;15.20;40.90;;;;;;4944012;29;20539;-82
2023/03/04 07:31:56;;;;;;;10.27;8.30;;;15.20;40.70;;;;;;4941843;29;20207;-82
2023/03/04 07:34:23;;;;;;;10.68;8.88;;;15.20;41.40;;;;;;4942987;29;20205;-81
2023/03/04 07:36:51;;;;;;;11.73;10.02;;;15.30;40.80;;;;;;4953476;29;20226;-82
2023/03/04 07:39:18;;;;;;;10.70;8.80;;;15.30;40.80;;;;;;4956048;29;20309;-82
2023/03/04 07:41:45;;;;;;;11.05;8.77;;;15.40;40.50;;;;;;4970630;29;20211;-82
2023/03/04 07:44:12;;;;;;;10.82;9.38;;;15.40;40.60;;;;;;4930372;29;20202;-81
2023/03/04 07:46:39;;;;;;;11.95;9.77;;;15.40;40.60;;;;;;4945246;29;20237;-82
2023/03/04 07:49:06;;;;;;;11.68;9.82;;;15.40;40.20;;;;;;4945091;29;20211;-82
2023/03/04 07:51:34;;;;;;;10.90;9.23;;;15.50;40.40;;;;;;4944639;29;20195;-82
2023/03/04 07:54:02;;;;;;;13.77;10.68;;;15.50;40.50;;;;;;4940982;29;20650;-82
2023/03/04 07:56:30;;;;;;;10.88;8.95;;;15.50;40.30;;;;;;4958530;28;20262;-82
2023/03/04 07:58:58;;;;;;;10.45;8.90;;;15.50;40.90;;;;;;4944206;29;20269;-82
2023/03/04 08:01:26;;;;;;;10.60;8.77;;;15.50;40.30;;;;;;4944596;29;20198;-82
2023/03/04 08:03:54;;;;;;;10.68;8.55;;;15.50;40.30;;;;;;4943718;29;20207;-82
2023/03/04 08:06:21;;;;;;;10.88;8.82;;;15.60;40.20;;;;;;4928128;29;20223;-82
2023/03/04 08:08:49;;;;;;;13.73;10.05;;;15.60;40.00;;;;;;4943015;29;20191;-82
2023/03/04 08:11:19;;;;;;;10.88;9.20;;;15.60;40.00;;;;;;4943480;29;20218;-82
2023/03/04 08:13:46;;;;;;;11.70;9.65;;;15.60;40.30;;;;;;4943243;29;20202;-82
2023/03/04 08:16:14;;;;;;;9.10;8.13;;;15.60;40.00;;;;;;4927387;29;20273;-82
2023/03/04 08:18:42;;;;;;;11.30;9.52;;;15.70;40.20;;;;;;4942185;29;20226;-82
2023/03/04 08:21:10;;;;;;;10.05;8.30;;;15.60;40.10;;;;;;4957050;29;20193;-82
2023/03/04 08:23:37;;;;;;;11.43;9.25;;;15.70;40.10;;;;;;4940672;29;20194;-82
2023/03/04 08:26:08;;;;;;;12.32;9.65;;;15.70;40.00;;;;;;4940215;28;20214;-82
2023/03/04 08:28:36;;;;;;;10.77;9.35;;;15.70;39.80;;;;;;4939910;29;20270;-82
2023/03/04 08:31:04;;;;;;;11.00;9.25;;;15.70;39.80;;;;;;4940194;29;20207;-82
2023/03/04 08:33:31;;;;;;;10.57;8.80;;;15.70;39.60;;;;;;4940727;29;20294;-82
2023/03/04 08:35:59;;;;;;;9.63;8.13;;;15.70;39.80;;;;;;4941151;28;20202;-82
2023/03/04 08:38:26;;;;;;;13.10;9.90;;;15.80;40.00;;;;;;4940005;29;20218;-82
2023/03/04 08:40:53;;;;;;;10.20;9.10;;;15.80;39.50;;;;;;4940261;29;20622;-82
2023/03/04 08:43:20;;;;;;;10.32;8.02;;;15.80;39.90;;;;;;4924293;29;20257;-82
2023/03/04 08:45:49;;;;;;;10.27;8.88;;;15.80;40.00;;;;;;4939821;28;20198;-82
2023/03/04 08:48:16;;;;;;;9.40;8.27;;;15.80;39.80;;;;;;4940258;29;20202;-82
2023/03/04 08:50:44;;;;;;;14.38;10.27;;;15.70;39.80;;;;;;4940005;29;20194;-82
2023/03/04 08:53:11;;;;;;;10.93;9.20;;;15.70;39.70;;;;;;4924224;29;20211;-82
2023/03/04 08:55:38;;;;;;;12.95;9.75;;;15.80;39.90;;;;;;4940964;29;20209;-82
2023/03/04 08:58:05;;;;;;;11.65;9.07;;;15.80;39.50;;;;;;4940317;29;20250;-82
2023/03/04 09:00:32;;;;;;;11.63;9.95;;;15.80;39.70;;;;;;4939591;29;20203;-82
2023/03/04 09:03:02;;;;;;;13.38;10.40;;;15.80;39.50;;;;;;4939837;29;20273;-82
2023/03/04 09:05:29;;;;;;;12.05;9.73;;;15.90;39.40;;;;;;4939689;29;20671;-82
2023/03/04 09:07:57;;;;;;;11.25;8.90;;;15.90;39.40;;;;;;4939437;29;20222;-82
2023/03/04 09:10:24;;;;;;;11.88;9.57;;;15.90;39.40;;;;;;4940216;29;20198;-82
2023/03/04 09:12:53;;;;;;;13.30;10.40;;;15.90;39.50;;;;;;4940485;29;20684;-82
2023/03/04 09:15:20;;;;;;;12.27;10.25;;;15.90;39.30;;;;;;4940180;29;20194;-82
2023/03/04 09:17:47;;;;;;;10.13;8.80;;;15.90;39.60;;;;;;4940193;29;20222;-82
2023/03/04 09:20:15;;;;;;;9.13;7.82;;;15.90;39.30;;;;;;4924268;29;20352;-82
2023/03/04 09:22:43;;;;;;;9.93;8.07;;;15.90;39.30;;;;;;4940256;29;20205;-82
2023/03/04 09:25:11;;;;;;;10.77;8.80;;;15.90;39.30;;;;;;4939450;29;20257;-82
2023/03/04 09:27:38;;;;;;;9.80;8.60;;;15.90;39.20;;;;;;4939826;29;20218;-82
2023/03/04 09:30:06;;;;;;;9.13;7.97;;;16.00;39.20;;;;;;4941144;29;20207;-83
2023/03/04 09:32:34;;;;;;;9.82;8.60;;;16.00;39.20;;;;;;4942263;29;20673;-83
2023/03/04 09:35:00;;;;;;;10.23;8.15;;;16.00;39.20;;;;;;4958140;29;20202;-83
2023/03/04 09:37:29;;;;;;;10.57;8.82;;;16.00;39.10;;;;;;4924824;29;20257;-83
2023/03/04 09:39:56;;;;;;;9.82;8.27;;;16.10;39.20;;;;;;4939624;29;20229;-83
2023/03/04 09:42:25;;;;;;;9.95;8.90;;;16.10;39.00;;;;;;4939457;29;20679;-83
2023/03/04 09:44:52;;;;;;;8.93;8.00;;;16.10;38.90;;;;;;4939866;29;20199;-82
2023/03/04 09:47:19;;;;;;;9.10;7.63;;;16.10;38.90;;;;;;4939613;29;20223;-82
2023/03/04 09:49:51;;;;;;;10.90;8.85;;;16.10;38.90;;;;;;4939649;29;20195;-82
2023/03/04 09:52:22;;;;;;;10.85;9.00;;;16.20;38.70;;;;;;4939441;29;20233;-83
2023/03/04 09:55:00;;;;;;;10.63;8.73;;;16.20;38.60;;;;;;4939396;29;20203;-83
2023/03/04 09:57:29;;;;;;;10.00;8.80;;;16.20;38.70;;;;;;4939641;29;20250;-83
2023/03/04 10:00:06;;;;;;;10.38;8.80;;;16.20;38.60;;;;;;4939273;29;20219;-83
2023/03/04 10:02:44;;;;;;;9.57;8.45;;;16.20;38.70;;;;;;4956680;29;20194;-83
2023/03/04 10:05:13;;;;;;;8.85;7.85;;;16.30;38.70;;;;;;4939837;29;20198;-83
2023/03/04 10:07:41;;;;;;;9.75;8.63;;;16.30;38.80;;;;;;4940338;29;20223;-83
2023/03/04 10:10:11;;;;;;;9.23;7.93;;;16.20;38.70;;;;;;4940408;29;20202;-83
2023/03/04 10:12:38;;;;;;;8.70;7.80;;;16.30;38.60;;;;;;4940167;29;20211;-83
2023/03/04 10:15:07;;;;;;;9.23;7.80;;;16.30;38.60;;;;;;4943567;29;20301;-83
2023/03/04 10:17:36;;;;;;;9.40;7.68;;;16.30;38.30;;;;;;4942842;29;20233;-83
2023/03/04 10:20:05;;;;;;;9.20;7.20;;;16.30;38.30;;;;;;4942612;29;20223;-82
2023/03/04 10:22:34;;;;;;;8.98;7.63;;;16.40;38.40;;;;;;4943298;29;20666;-82
2023/03/04 10:25:14;;;;;;;9.77;7.97;;;16.40;38.40;;;;;;4943299;29;20230;-82
2023/03/04 10:27:42;;;;;;;8.27;7.38;;;16.40;38.40;;;;;;4942117;29;20310;-82
2023/03/04 10:30:13;;;;;;;9.60;7.80;;;16.40;38.40;;;;;;4941970;29;20549;-82
2023/03/04 10:32:42;;;;;;;8.18;7.28;;;16.40;38.40;;;;;;4942128;29;20195;-82
2023/03/04 10:35:11;;;;;;;7.75;6.95;;;16.50;38.40;;;;;;4942125;29;20203;-83
2023/03/04 10:37:47;;;;;;;8.27;7.47;;;16.50;38.20;;;;;;4942228;29;20223;-83
2023/03/04 10:40:24;;;;;;;8.95;7.68;;;16.50;38.00;;;;;;4941831;29;20214;-82
2023/03/04 10:42:51;;;;;;;8.82;7.65;;;16.60;38.00;;;;;;4942201;29;20278;-82
2023/03/04 10:45:23;;;;;;;8.75;7.78;;;16.60;38.00;;;;;;4941808;29;20237;-82
2023/03/04 10:47:53;;;;;;;10.57;9.13;;;16.60;38.00;;;;;;4941076;29;20246;-82
2023/03/04 10:50:25;;;;;;;9.73;7.68;;;16.60;37.90;;;;;;4941381;29;20205;-82
2023/03/04 10:52:54;;;;;;;8.82;7.45;;;16.60;37.80;;;;;;4941196;29;20207;-82
2023/03/04 10:55:24;;;;;;;8.50;7.70;;;16.60;37.80;;;;;;4941029;29;20262;-82
2023/03/04 10:57:52;;;;;;;10.35;8.88;;;16.60;37.80;;;;;;4940896;29;20226;-82
2023/03/04 11:00:26;;;;;;;9.10;8.15;;;16.70;37.80;;;;;;4941054;29;20222;-82
2023/03/04 11:02:53;;;;;;;8.88;7.95;;;16.70;37.50;;;;;;4941182;29;20194;-82
2023/03/04 11:05:21;;;;;;;8.40;7.50;;;16.80;37.70;;;;;;4925290;29;20199;-82
2023/03/04 11:07:49;;;;;;;10.55;8.70;;;16.80;37.50;;;;;;4941081;29;20322;-82
2023/03/04 11:10:18;;;;;;;8.80;7.90;;;16.80;37.30;;;;;;4941385;29;20597;-82
2023/03/04 11:12:50;;;;;;;9.02;8.13;;;16.80;37.50;;;;;;4941787;29;20258;-82
2023/03/04 11:15:21;;;;;;;10.32;9.20;;;16.80;37.40;;;;;;4942360;29;20298;-82
2023/03/04 11:17:50;;;;;;;9.38;8.30;;;16.80;37.50;;;;;;4941320;29;20223;-82
2023/03/04 11:20:18;;;;;;;10.68;9.57;;;16.80;37.60;;;;;;4941151;29;20222;-82
2023/03/04 11:22:46;;;;;;;9.52;8.52;;;16.80;37.30;;;;;;4941455;29;20207;-82
2023/03/04 11:25:21;;;;;;;9.23;8.35;;;16.90;37.50;;;;;;4940957;29;20210;-82
2023/03/04 11:27:51;;;;;;;9.95;8.95;;;16.90;37.50;;;;;;4941426;29;20233;-82
2023/03/04 11:30:36;;;;;;;9.85;8.85;;;16.90;37.40;;;;;;4925370;29;20532;-82
2023/03/04 11:33:10;;;;;;;9.13;7.90;;;16.90;37.40;;;;;;4941969;29;20202;-82
2023/03/04 11:35:42;;;;;;;10.15;8.82;;;16.90;37.50;;;;;;4941737;29;20676;-82
2023/03/04 11:38:10;;;;;;;10.27;9.18;;;17.00;37.40;;;;;;4941478;29;20233;-82
2023/03/04 11:40:40;;;;;;;9.88;8.88;;;17.00;37.30;;;;;;4941014;29;20250;-82
2023/03/04 11:43:12;;;;;;;10.15;9.15;;;17.00;37.30;;;;;;4940974;29;20666;-82
2023/03/04 11:45:52;;;;;;;10.07;9.10;;;17.00;37.10;;;;;;4940671;29;20187;-82
2023/03/04 11:48:24;;;;;;;11.00;9.90;;;17.00;37.10;;;;;;4938599;29;20207;-82
2023/03/04 11:50:52;;;;;;;10.77;9.68;;;17.10;37.10;;;;;;4925547;29;20195;-82
2023/03/04 11:53:41;;;;;;;10.38;9.27;;;17.10;36.90;;;;;;4940435;29;20202;-82
2023/03/04 11:56:25;;;;;;;10.15;9.05;;;17.10;37.00;;;;;;4941194;28;20223;-82
2023/03/04 11:59:12;;;;;;;9.60;8.63;;;17.10;37.10;;;;;;4943603;29;20222;-82
2023/03/04 12:01:42;;;;;;;10.77;9.60;;;17.10;36.90;;;;;;4943877;29;20274;-82
2023/03/04 12:04:27;;;;;;;11.90;10.05;;;17.20;36.90;;;;;;4945092;29;20609;-82
2023/03/04 12:07:01;;;;;;;11.75;9.77;;;17.20;36.70;;;;;;4927600;29;20230;-83
2023/03/04 12:09:37;;;;;;;11.00;9.90;;;17.20;36.80;;;;;;4940074;29;20194;-83
2023/03/04 12:12:18;;;;;;;10.70;9.60;;;17.20;36.90;;;;;;4939966;29;20269;-83
2023/03/04 12:14:49;;;;;;;11.80;10.60;;;17.20;36.80;;;;;;4940267;29;20544;-83
2023/03/04 12:17:29;;;;;;;11.25;9.88;;;17.20;36.70;;;;;;4940018;29;20226;-83
2023/03/04 12:20:09;;;;;;;11.35;9.93;;;17.30;36.80;;;;;;4940173;29;20230;-83
2023/03/04 12:22:42;;;;;;;11.50;10.40;;;17.20;36.30;;;;;;4940697;29;20611;-83
2023/03/04 12:25:19;;;;;;;13.50;11.32;;;17.30;36.50;;;;;;4940034;29;20206;-83
2023/03/04 12:27:51;;;;;;;11.68;10.52;;;17.30;36.40;;;;;;4940159;29;20691;-83
2023/03/04 12:30:30;;;;;;;12.82;11.25;;;17.30;36.50;;;;;;4940167;29;20195;-83
2023/03/04 12:33:01;;;;;;;14.07;11.52;;;17.30;36.40;;;;;;4940441;29;20195;-83
2023/03/04 12:35:33;;;;;;;12.50;11.13;;;17.30;36.40;;;;;;4939736;29;20211;-83
2023/03/04 12:38:09;;;;;;;12.40;11.20;;;17.30;36.40;;;;;;4940380;29;20222;-83
2023/03/04 12:40:40;;;;;;;11.30;10.13;;;17.30;36.40;;;;;;4940826;29;20228;-83